Terminal Aerodrome Forecast
Issued by NWS

Home | Current Version | Previous Version | Text Only | Print | Product List | Glossary On
Versions: 1 2 3 4 5 6 7 8 9 10 11 12 13 14 15 16 17 18 19 20 21 22 23
000
FTUS45 KGJT 202339
TAFEGE
TAF
KEGE 202339Z 2100/2124 VRB03KT P6SM FEW110
     FM210000 VRB03KT P6SM BKN100
     FM211700 24006KT P6SM VCSH SCT050 OVC080
     FM211900 26008KT P6SM -SHRA OVC050
      AMD LTD TO CLD VIS AND WIND 2101/2113=

USA.gov is the U.S. government's official web portal to all federal, state and local government web resources and services.